Time;durP1;ratioP1;P1;durP2;ratioP2;P2;SDS_P1;SDS_P2;PMS_P1;PMS_P2;Temp;Humidity;BMP_temperature;BMP_pressure;BME280_temperature;BME280_humidity;BME280_pressure;Samples;Min_cycle;Max_cycle;Signal;HPM_P1;HPM_P2
2023/11/19 00:00:23;;;;;;;;;;;;;;;;;;5075981;28;20027;-81
2023/11/19 00:02:49;;;;;;;;;;;;;;;;;;5080286;28;20338;-81
2023/11/19 00:05:16;;;;;;;;;;;;;;;;;;5078090;28;19928;-81
2023/11/19 00:07:42;;;;;;;;;;;;;;;;;;5074390;28;20311;-81
2023/11/19 00:10:09;;;;;;;;;;;;;;;;;;5070155;28;19960;-81
2023/11/19 00:12:36;;;;;;;;;;;;;;;;;;5076908;28;20373;-81
2023/11/19 00:15:03;;;;;;;;;;;;;;;;;;5075314;28;19925;-82
2023/11/19 00:17:29;;;;;;;;;;;;;;;;;;5075089;28;19966;-83
2023/11/19 00:19:55;;;;;;;;;;;;;;;;;;5058460;28;20027;-82
2023/11/19 00:22:22;;;;;;;;;;;;;;;;;;5075563;28;20006;-81
2023/11/19 00:24:49;;;;;;;;;;;;;;;;;;5080092;28;19925;-81
2023/11/19 00:27:16;;;;;;;;;;;;;;;;;;5076580;28;19924;-81
2023/11/19 00:29:44;;;;;;;;;;;;;;;;;;5080207;28;19951;-81
2023/11/19 00:32:11;;;;;;;;;;;;;;;;;;5079944;28;20332;-80
2023/11/19 00:34:38;;;;;;;;;;;;;;;;;;5076401;28;20388;-82
2023/11/19 00:37:05;;;;;;;;;;;;;;;;;;5074211;28;19929;-82
2023/11/19 00:39:31;;;;;;;;;;;;;;;;;;5076483;28;19982;-81
2023/11/19 00:41:58;;;;;;;;;;;;;;;;;;5075331;28;19924;-82
2023/11/19 00:44:25;;;;;;;;;;;;;;;;;;5056559;28;19934;-82
2023/11/19 00:46:51;;;;;;;;;;;;;;;;;;5072187;28;19924;-82
2023/11/19 00:49:18;;;;;;;;;;;;;;;;;;5072344;28;19924;-81
2023/11/19 00:51:45;;;;;;;;;;;;;;;;;;5074780;28;19924;-81
2023/11/19 00:54:11;;;;;;;;;;;;;;;;;;5074272;28;20456;-81
2023/11/19 00:56:38;;;;;;;;;;;;;;;;;;5084152;28;19942;-81
2023/11/19 00:59:04;;;;;;;;;;;;;;;;;;5060008;28;19924;-81
2023/11/19 01:01:31;;;;;;;;;;;;;;;;;;5074929;28;19970;-81
2023/11/19 01:03:57;;;;;;;;;;;;;;;;;;5075311;28;19943;-82
2023/11/19 01:06:24;;;;;;;;;;;;;;;;;;5075491;28;19928;-82
2023/11/19 01:08:52;;;;;;;;;;;;;;;;;;5076303;28;19974;-82
2023/11/19 01:11:20;;;;;;;;;;;;;;;;;;5079146;28;20023;-81
2023/11/19 01:13:47;;;;;;;;;;;;;;;;;;5071675;28;19951;-82
2023/11/19 01:16:13;;;;;;;;;;;;;;;;;;5080152;28;20082;-83
2023/11/19 01:18:39;;;;;;;;;;;;;;;;;;5076055;28;19930;-84
2023/11/19 01:21:06;;;;;;;;;;;;;;;;;;5060407;28;19928;-83
2023/11/19 01:23:33;;;;;;;;;;;;;;;;;;5061851;28;19931;-83
2023/11/19 01:26:00;;;;;;;;;;;;;;;;;;5084346;28;19931;-80
2023/11/19 01:28:26;;;;;;;;;;;;;;;;;;5059286;28;19978;-82
2023/11/19 01:30:53;;;;;;;;;;;;;;;;;;5074235;28;20024;-81
2023/11/19 01:33:19;;;;;;;;;;;;;;;;;;5071640;28;19947;-81
2023/11/19 01:35:45;;;;;;;;;;;;;;;;;;5054230;28;19924;-82
2023/11/19 01:38:12;;;;;;;;;;;;;;;;;;5054183;28;19925;-82
2023/11/19 01:40:39;;;;;;;;;;;;;;;;;;5062078;28;20649;-82
2023/11/19 01:43:05;;;;;;;;;;;;;;;;;;5074253;28;20020;-81
2023/11/19 01:45:32;;;;;;;;;;;;;;;;;;5062309;28;19977;-82
2023/11/19 01:47:59;;;;;;;;;;;;;;;;;;5074287;28;20411;-81
2023/11/19 01:50:25;;;;;;;;;;;;;;;;;;5079514;28;19924;-80
2023/11/19 01:52:52;;;;;;;;;;;;;;;;;;5075580;28;19931;-81
2023/11/19 01:55:18;;;;;;;;;;;;;;;;;;5079407;28;19925;-81
2023/11/19 01:57:45;;;;;;;;;;;;;;;;;;5077215;28;19928;-81
2023/11/19 02:00:11;;;;;;;;;;;;;;;;;;5059706;28;19935;-81
2023/11/19 02:02:43;;;;;;;;;;;;;;;;;;5075005;28;20011;-80
2023/11/19 02:05:09;;;;;;;;;;;;;;;;;;5078622;28;19935;-81
2023/11/19 02:07:36;;;;;;;;;;;;;;;;;;5073965;28;19931;-80
2023/11/19 02:10:05;;;;;;;;;;;;;;;;;;5070545;28;19925;-80
2023/11/19 02:12:35;;;;;;;;;;;;;;;;;;5070448;28;20389;-79
2023/11/19 02:15:02;;;;;;;;;;;;;;;;;;5055886;28;19984;-80
2023/11/19 02:17:28;;;;;;;;;;;;;;;;;;5079613;28;20352;-80
2023/11/19 02:19:55;;;;;;;;;;;;;;;;;;5079155;28;19974;-80
2023/11/19 02:22:21;;;;;;;;;;;;;;;;;;5076184;28;19939;-81
2023/11/19 02:24:48;;;;;;;;;;;;;;;;;;5072304;28;20369;-80
2023/11/19 02:27:14;;;;;;;;;;;;;;;;;;5075609;28;20019;-80
2023/11/19 02:29:40;;;;;;;;;;;;;;;;;;5078778;28;19935;-80
2023/11/19 02:32:09;;;;;;;;;;;;;;;;;;5062505;28;19934;-81
2023/11/19 02:34:36;;;;;;;;;;;;;;;;;;5071025;28;20392;-81
2023/11/19 02:37:02;;;;;;;;;;;;;;;;;;5072876;28;20299;-81
2023/11/19 02:39:29;;;;;;;;;;;;;;;;;;5077408;28;19937;-80
2023/11/19 02:41:55;;;;;;;;;;;;;;;;;;5081659;28;20323;-80
2023/11/19 02:44:23;;;;;;;;;;;;;;;;;;5059086;28;19928;-81
2023/11/19 02:46:49;;;;;;;;;;;;;;;;;;5055141;28;19946;-80
2023/11/19 02:49:15;;;;;;;;;;;;;;;;;;5072933;28;19970;-80
2023/11/19 02:51:42;;;;;;;;;;;;;;;;;;5072727;28;20009;-80
2023/11/19 02:54:09;;;;;;;;;;;;;;;;;;5075793;28;19925;-79
2023/11/19 02:56:37;;;;;;;;;;;;;;;;;;5072655;28;19928;-81
2023/11/19 02:59:11;;;;;;;;;;;;;;;;;;5072015;28;19932;-80
2023/11/19 03:01:43;;;;;;;;;;;;;;;;;;5059222;28;19951;-80
2023/11/19 03:04:12;;;;;;;;;;;;;;;;;;5057406;28;20011;-80
2023/11/19 03:06:38;;;;;;;;;;;;;;;;;;5082220;28;20353;-80
2023/11/19 03:09:10;;;;;;;;;;;;;;;;;;5058295;28;20288;-80
2023/11/19 03:11:36;;;;;;;;;;;;;;;;;;5062226;28;19934;-80
2023/11/19 03:14:03;;;;;;;;;;;;;;;;;;5079270;28;20439;-80
2023/11/19 03:16:29;;;;;;;;;;;;;;;;;;5074675;28;20377;-80
2023/11/19 03:18:56;;;;;;;;;;;;;;;;;;5078117;28;20440;-80
2023/11/19 03:21:22;;;;;;;;;;;;;;;;;;5079347;28;19924;-80
2023/11/19 03:23:49;;;;;;;;;;;;;;;;;;5079299;28;19964;-80
2023/11/19 03:26:15;;;;;;;;;;;;;;;;;;5075677;28;19967;-80
2023/11/19 03:28:42;;;;;;;;;;;;;;;;;;5059633;28;20356;-80
2023/11/19 03:31:08;;;;;;;;;;;;;;;;;;5081128;28;20047;-81
2023/11/19 03:33:35;;;;;;;;;;;;;;;;;;5079148;28;19935;-82
2023/11/19 03:36:01;;;;;;;;;;;;;;;;;;5081317;28;20437;-81
2023/11/19 03:38:28;;;;;;;;;;;;;;;;;;5059042;28;20007;-81
2023/11/19 03:40:54;;;;;;;;;;;;;;;;;;5081859;28;19963;-81
2023/11/19 03:43:20;;;;;;;;;;;;;;;;;;5078561;28;19980;-81
2023/11/19 03:45:47;;;;;;;;;;;;;;;;;;5056909;28;19960;-81
2023/11/19 03:48:16;;;;;;;;;;;;;;;;;;5082432;28;19928;-81
2023/11/19 03:50:42;;;;;;;;;;;;;;;;;;5076126;28;19928;-82
2023/11/19 03:53:09;;;;;;;;;;;;;;;;;;5076134;28;19928;-80
2023/11/19 03:55:35;;;;;;;;;;;;;;;;;;5073790;28;19928;-80
2023/11/19 03:58:02;;;;;;;;;;;;;;;;;;5078497;28;19924;-80
2023/11/19 04:00:29;;;;;;;;;;;;;;;;;;5076619;28;19925;-80
2023/11/19 04:02:55;;;;;;;;;;;;;;;;;;5076854;28;20372;-80
2023/11/19 04:05:22;;;;;;;;;;;;;;;;;;5056709;28;19951;-80
2023/11/19 04:07:48;;;;;;;;;;;;;;;;;;5060271;28;20403;-81
2023/11/19 04:10:16;;;;;;;;;;;;;;;;;;5074932;28;20023;-82
2023/11/19 04:12:43;;;;;;;;;;;;;;;;;;5076017;28;20408;-81
2023/11/19 04:15:09;;;;;;;;;;;;;;;;;;5075984;28;19924;-80
2023/11/19 04:17:36;;;;;;;;;;;;;;;;;;5074788;28;19934;-80
2023/11/19 04:20:04;;;;;;;;;;;;;;;;;;5075952;28;19924;-80
2023/11/19 04:22:30;;;;;;;;;;;;;;;;;;5074947;28;19929;-80
2023/11/19 04:24:57;;;;;;;;;;;;;;;;;;5080058;28;19948;-80
2023/11/19 04:27:23;;;;;;;;;;;;;;;;;;5079247;28;19932;-80
2023/11/19 04:29:50;;;;;;;;;;;;;;;;;;5059595;28;19947;-80
2023/11/19 04:32:17;;;;;;;;;;;;;;;;;;5074371;28;19981;-81
2023/11/19 04:34:43;;;;;;;;;;;;;;;;;;5077752;28;20452;-80
2023/11/19 04:37:09;;;;;;;;;;;;;;;;;;5076298;28;20265;-80
2023/11/19 04:39:39;;;;;;;;;;;;;;;;;;5074182;28;19925;-80
2023/11/19 04:42:06;;;;;;;;;;;;;;;;;;5079302;28;19928;-80
2023/11/19 04:44:33;;;;;;;;;;;;;;;;;;5075687;28;20418;-79
2023/11/19 04:46:59;;;;;;;;;;;;;;;;;;5075549;28;20020;-80
2023/11/19 04:49:26;;;;;;;;;;;;;;;;;;5079132;28;20379;-80
2023/11/19 04:51:53;;;;;;;;;;;;;;;;;;5077825;28;19931;-80
2023/11/19 04:54:20;;;;;;;;;;;;;;;;;;5071097;28;19981;-80
2023/11/19 04:56:49;;;;;;;;;;;;;;;;;;5077625;28;19929;-80
2023/11/19 04:59:16;;;;;;;;;;;;;;;;;;5061383;28;19925;-80
2023/11/19 05:01:43;;;;;;;;;;;;;;;;;;5078718;28;19928;-80
2023/11/19 05:04:09;;;;;;;;;;;;;;;;;;5077434;28;20027;-80
2023/11/19 05:06:37;;;;;;;;;;;;;;;;;;5076710;28;19974;-80
2023/11/19 05:09:12;;;;;;;;;;;;;;;;;;5060539;28;20339;-80
2023/11/19 05:11:40;;;;;;;;;;;;;;;;;;5075998;28;19929;-80
2023/11/19 05:14:09;;;;;;;;;;;;;;;;;;5078100;28;20435;-80
2023/11/19 05:16:35;;;;;;;;;;;;;;;;;;5075766;28;19935;-80
2023/11/19 05:19:02;;;;;;;;;;;;;;;;;;5081122;28;20015;-80
2023/11/19 05:21:29;;;;;;;;;;;;;;;;;;5081014;28;19955;-79
2023/11/19 05:23:56;;;;;;;;;;;;;;;;;;5072014;28;20023;-77
2023/11/19 05:26:23;;;;;;;;;;;;;;;;;;5056581;28;20026;-77
2023/11/19 05:28:49;;;;;;;;;;;;;;;;;;5075923;28;19935;-78
2023/11/19 05:31:15;;;;;;;;;;;;;;;;;;5078097;28;19924;-77
2023/11/19 05:33:42;;;;;;;;;;;;;;;;;;5073738;28;19959;-76
2023/11/19 05:36:08;;;;;;;;;;;;;;;;;;5076230;28;20046;-75
2023/11/19 05:38:35;;;;;;;;;;;;;;;;;;5074327;28;19950;-79
2023/11/19 05:41:01;;;;;;;;;;;;;;;;;;5076334;28;19968;-78
2023/11/19 05:43:27;;;;;;;;;;;;;;;;;;5073184;28;19924;-78
2023/11/19 05:45:54;;;;;;;;;;;;;;;;;;5072401;28;19972;-80
2023/11/19 05:48:20;;;;;;;;;;;;;;;;;;5072960;28;19924;-78
2023/11/19 05:50:49;;;;;;;;;;;;;;;;;;5079551;28;20002;-79
2023/11/19 05:53:15;;;;;;;;;;;;;;;;;;5073972;28;20027;-79
2023/11/19 05:55:48;;;;;;;;;;;;;;;;;;5075661;28;19925;-77
2023/11/19 05:58:15;;;;;;;;;;;;;;;;;;5069496;28;20330;-78
2023/11/19 06:00:41;;;;;;;;;;;;;;;;;;5071724;28;20377;-78
2023/11/19 06:03:08;;;;;;;;;;;;;;;;;;5077531;28;19924;-76
2023/11/19 06:05:34;;;;;;;;;;;;;;;;;;5076732;28;19960;-77
2023/11/19 06:08:01;;;;;;;;;;;;;;;;;;5068881;28;19931;-78
2023/11/19 06:10:30;;;;;;;;;;;;;;;;;;5075999;28;19928;-78
2023/11/19 06:12:59;;;;;;;;;;;;;;;;;;5079137;28;19931;-77
2023/11/19 06:15:27;;;;;;;;;;;;;;;;;;5083978;28;19925;-79
2023/11/19 06:17:54;;;;;;;;;;;;;;;;;;5072246;28;19967;-79
2023/11/19 06:20:21;;;;;;;;;;;;;;;;;;5078442;28;19986;-77
2023/11/19 06:22:47;;;;;;;;;;;;;;;;;;5074680;28;20015;-77
2023/11/19 06:25:14;;;;;;;;;;;;;;;;;;5077932;28;19931;-78
2023/11/19 06:27:41;;;;;;;;;;;;;;;;;;5070511;28;19979;-77
2023/11/19 06:30:07;;;;;;;;;;;;;;;;;;5075223;28;19924;-76
2023/11/19 06:32:33;;;;;;;;;;;;;;;;;;5057250;28;20035;-78
2023/11/19 06:35:00;;;;;;;;;;;;;;;;;;5085858;28;19978;-78
2023/11/19 06:37:27;;;;;;;;;;;;;;;;;;5080298;28;19959;-78
2023/11/19 06:39:53;;;;;;;;;;;;;;;;;;5078297;28;19924;-79
2023/11/19 06:42:20;;;;;;;;;;;;;;;;;;5083330;28;19935;-77
2023/11/19 06:44:46;;;;;;;;;;;;;;;;;;5083560;28;20371;-78
2023/11/19 06:47:13;;;;;;;;;;;;;;;;;;5062652;28;20001;-77
2023/11/19 06:49:40;;;;;;;;;;;;;;;;;;5076146;28;19935;-79
2023/11/19 06:52:06;;;;;;;;;;;;;;;;;;5078790;28;19974;-77
2023/11/19 06:54:33;;;;;;;;;;;;;;;;;;5083430;28;19932;-79
2023/11/19 06:56:59;;;;;;;;;;;;;;;;;;5079774;28;19928;-77
2023/11/19 06:59:25;;;;;;;;;;;;;;;;;;5077438;28;19935;-76
2023/11/19 07:01:52;;;;;;;;;;;;;;;;;;5077197;28;19970;-77
2023/11/19 07:04:18;;;;;;;;;;;;;;;;;;5073987;28;19928;-76
2023/11/19 07:06:44;;;;;;;;;;;;;;;;;;5079308;28;20372;-74
2023/11/19 07:09:11;;;;;;;;;;;;;;;;;;5077418;28;19924;-77
2023/11/19 07:11:38;;;;;;;;;;;;;;;;;;5079015;28;19931;-75
2023/11/19 07:14:06;;;;;;;;;;;;;;;;;;5082738;28;19961;-78
2023/11/19 07:16:34;;;;;;;;;;;;;;;;;;5077437;28;19924;-77
2023/11/19 07:19:00;;;;;;;;;;;;;;;;;;5093516;28;19924;-77
2023/11/19 07:21:28;;;;;;;;;;;;;;;;;;5075218;28;19935;-77
2023/11/19 07:23:55;;;;;;;;;;;;;;;;;;5080073;28;20383;-76
2023/11/19 07:26:21;;;;;;;;;;;;;;;;;;5077929;28;19934;-75
2023/11/19 07:28:48;;;;;;;;;;;;;;;;;;5077166;28;20439;-75
2023/11/19 07:31:14;;;;;;;;;;;;;;;;;;5077026;28;19973;-76
2023/11/19 07:33:44;;;;;;;;;;;;;;;;;;5076636;28;20391;-78
2023/11/19 07:36:10;;;;;;;;;;;;;;;;;;5061547;28;19933;-76
2023/11/19 07:38:37;;;;;;;;;;;;;;;;;;5055313;28;19928;-76
2023/11/19 07:41:05;;;;;;;;;;;;;;;;;;5075312;28;20296;-75
2023/11/19 07:43:31;;;;;;;;;;;;;;;;;;5072099;28;20446;-78
2023/11/19 07:45:59;;;;;;;;;;;;;;;;;;5079532;28;20459;-77
2023/11/19 07:48:25;;;;;;;;;;;;;;;;;;5076556;28;20291;-76
2023/11/19 07:50:52;;;;;;;;;;;;;;;;;;5080095;28;19924;-75
2023/11/19 07:53:18;;;;;;;;;;;;;;;;;;5074375;28;19925;-76
2023/11/19 07:55:45;;;;;;;;;;;;;;;;;;5077677;28;19928;-77
2023/11/19 07:58:11;;;;;;;;;;;;;;;;;;5082068;28;20394;-75
2023/11/19 08:00:37;;;;;;;;;;;;;;;;;;5076358;28;19924;-75
2023/11/19 08:03:04;;;;;;;;;;;;;;;;;;5074938;28;19931;-76
2023/11/19 08:05:30;;;;;;;;;;;;;;;;;;5077979;28;19929;-76
2023/11/19 08:07:58;;;;;;;;;;;;;;;;;;5079291;28;20018;-77
2023/11/19 08:10:24;;;;;;;;;;;;;;;;;;5080941;28;20058;-76
2023/11/19 08:12:51;;;;;;;;;;;;;;;;;;5078838;28;19929;-76
2023/11/19 08:15:17;;;;;;;;;;;;;;;;;;5071606;28;19967;-77
2023/11/19 08:17:57;;;;;;;;;;;;;;;;;;5077233;28;19924;-77
2023/11/19 08:20:23;;;;;;;;;;;;;;;;;;5076703;28;19963;-77
2023/11/19 08:22:50;;;;;;;;;;;;;;;;;;5074028;28;19924;-77
2023/11/19 08:25:16;;;;;;;;;;;;;;;;;;5076027;28;19929;-76
2023/11/19 08:27:43;;;;;;;;;;;;;;;;;;5076086;28;19929;-76
2023/11/19 08:30:10;;;;;;;;;;;;;;;;;;5077124;28;20050;-76
2023/11/19 08:32:36;;;;;;;;;;;;;;;;;;5063147;28;19924;-76
2023/11/19 08:35:03;;;;;;;;;;;;;;;;;;5084849;28;19975;-76
2023/11/19 08:37:29;;;;;;;;;;;;;;;;;;5074452;28;20001;-76
2023/11/19 08:39:55;;;;;;;;;;;;;;;;;;5071090;28;19963;-77
2023/11/19 08:42:22;;;;;;;;;;;;;;;;;;5077885;28;19924;-76
2023/11/19 08:44:50;;;;;;;;;;;;;;;;;;5076084;28;20031;-76
2023/11/19 08:47:17;;;;;;;;;;;;;;;;;;5061544;28;20043;-76
2023/11/19 08:49:44;;;;;;;;;;;;;;;;;;5075089;28;19931;-76
2023/11/19 08:52:10;;;;;;;;;;;;;;;;;;5079034;28;20304;-76
2023/11/19 08:54:36;;;;;;;;;;;;;;;;;;5076408;28;20455;-76
2023/11/19 08:57:03;;;;;;;;;;;;;;;;;;5076681;28;19982;-78
2023/11/19 08:59:29;;;;;;;;;;;;;;;;;;5073816;28;19928;-76
2023/11/19 09:01:56;;;;;;;;;;;;;;;;;;5059907;28;19928;-75
2023/11/19 09:04:22;;;;;;;;;;;;;;;;;;5075176;28;20456;-77
2023/11/19 09:06:49;;;;;;;;;;;;;;;;;;5072397;28;19925;-75
2023/11/19 09:09:15;;;;;;;;;;;;;;;;;;5075409;28;19925;-75
2023/11/19 09:11:42;;;;;;;;;;;;;;;;;;5072759;28;20019;-77
2023/11/19 09:14:08;;;;;;;;;;;;;;;;;;5075507;28;19934;-76
2023/11/19 09:16:35;;;;;;;;;;;;;;;;;;5073026;28;20388;-78
2023/11/19 09:19:02;;;;;;;;;;;;;;;;;;5074811;28;19924;-77
2023/11/19 09:21:34;;;;;;;;;;;;;;;;;;5076493;28;19928;-75
2023/11/19 09:24:00;;;;;;;;;;;;;;;;;;5071779;28;20345;-76
2023/11/19 09:26:27;;;;;;;;;;;;;;;;;;5073163;28;19932;-76
2023/11/19 09:28:53;;;;;;;;;;;;;;;;;;5074975;28;19925;-75
2023/11/19 09:31:19;;;;;;;;;;;;;;;;;;5059158;28;20014;-76
2023/11/19 09:33:46;;;;;;;;;;;;;;;;;;5073482;28;19956;-78
2023/11/19 09:36:13;;;;;;;;;;;;;;;;;;5052822;28;19928;-78
2023/11/19 09:38:40;;;;;;;;;;;;;;;;;;5060156;28;19924;-75
2023/11/19 09:41:08;;;;;;;;;;;;;;;;;;5075965;28;19963;-75
2023/11/19 09:43:36;;;;;;;;;;;;;;;;;;5065190;28;19932;-76
2023/11/19 09:46:05;;;;;;;;;;;;;;;;;;5070728;28;19933;-76
2023/11/19 09:48:31;;;;;;;;;;;;;;;;;;5070652;28;19936;-76
2023/11/19 09:50:58;;;;;;;;;;;;;;;;;;5076919;28;19967;-76
2023/11/19 09:53:25;;;;;;;;;;;;;;;;;;5068684;28;19925;-76
2023/11/19 09:55:51;;;;;;;;;;;;;;;;;;5075027;28;19928;-76
2023/11/19 09:58:18;;;;;;;;;;;;;;;;;;5087293;28;19928;-76
2023/11/19 10:00:44;;;;;;;;;;;;;;;;;;5072204;28;19929;-75
2023/11/19 10:03:16;;;;;;;;;;;;;;;;;;5074503;28;20028;-76
2023/11/19 10:05:43;;;;;;;;;;;;;;;;;;5073837;28;20027;-76
2023/11/19 10:08:10;;;;;;;;;;;;;;;;;;5069805;28;20023;-77
2023/11/19 10:10:37;;;;;;;;;;;;;;;;;;5074311;28;20379;-75
2023/11/19 10:13:03;;;;;;;;;;;;;;;;;;5071437;28;19971;-74
2023/11/19 10:15:30;;;;;;;;;;;;;;;;;;5082595;28;19963;-77
2023/11/19 10:17:56;;;;;;;;;;;;;;;;;;5082139;28;19932;-76
2023/11/19 10:20:23;;;;;;;;;;;;;;;;;;5062992;28;19925;-78
2023/11/19 10:22:50;;;;;;;;;;;;;;;;;;5077792;28;19928;-77
2023/11/19 10:25:16;;;;;;;;;;;;;;;;;;5084726;28;19978;-76
2023/11/19 10:27:43;;;;;;;;;;;;;;;;;;5072172;28;20146;-76
2023/11/19 10:30:10;;;;;;;;;;;;;;;;;;5075851;28;20771;-76
2023/11/19 10:32:37;;;;;;;;;;;;;;;;;;5058645;28;20412;-77
2023/11/19 10:35:04;;;;;;;;;;;;;;;;;;5075934;28;19950;-75
2023/11/19 10:37:37;;;;;;;;;;;;;;;;;;5084475;28;19935;-76
2023/11/19 10:40:10;;;;;;;;;;;;;;;;;;5060549;28;19932;-76
2023/11/19 10:42:36;;;;;;;;;;;;;;;;;;5080632;28;19928;-77
2023/11/19 10:45:03;;;;;;;;;;;;;;;;;;5077054;28;19930;-76
2023/11/19 10:47:30;;;;;;;;;;;;;;;;;;5082854;28;19924;-76
2023/11/19 10:49:59;;;;;;;;;;;;;;;;;;5092178;28;19924;-76
2023/11/19 10:52:27;;;;;;;;;;;;;;;;;;5060009;28;20395;-76
2023/11/19 10:54:54;;;;;;;;;;;;;;;;;;5064306;28;20030;-76
2023/11/19 10:57:21;;;;;;;;;;;;;;;;;;5082467;28;20392;-75
2023/11/19 10:59:47;;;;;;;;;;;;;;;;;;5075678;28;19925;-78
2023/11/19 11:02:14;;;;;;;;;;;;;;;;;;5065001;28;20377;-78
2023/11/19 11:04:42;;;;;;;;;;;;;;;;;;5077612;28;19928;-78
2023/11/19 11:07:08;;;;;;;;;;;;;;;;;;5081671;28;20019;-76
2023/11/19 11:09:34;;;;;;;;;;;;;;;;;;5082081;28;19930;-76
2023/11/19 11:12:01;;;;;;;;;;;;;;;;;;5076172;28;20412;-76
2023/11/19 11:14:27;;;;;;;;;;;;;;;;;;5075538;28;20404;-78
2023/11/19 11:16:53;;;;;;;;;;;;;;;;;;5072433;28;20002;-76
2023/11/19 11:19:20;;;;;;;;;;;;;;;;;;5082484;28;19976;-77
2023/11/19 11:21:46;;;;;;;;;;;;;;;;;;5077564;28;20023;-76
2023/11/19 11:24:13;;;;;;;;;;;;;;;;;;5075209;28;19935;-76
2023/11/19 11:26:39;;;;;;;;;;;;;;;;;;5077701;28;20019;-75
2023/11/19 11:29:06;;;;;;;;;;;;;;;;;;5080202;28;19928;-76
2023/11/19 11:31:33;;;;;;;;;;;;;;;;;;5083252;28;19924;-78
2023/11/19 11:34:00;;;;;;;;;;;;;;;;;;5076254;28;19924;-76
2023/11/19 11:36:29;;;;;;;;;;;;;;;;;;5073461;28;19928;-76
2023/11/19 11:38:56;;;;;;;;;;;;;;;;;;5060250;28;20390;-77
2023/11/19 11:41:23;;;;;;;;;;;;;;;;;;5081379;28;19935;-77
2023/11/19 11:43:55;;;;;;;;;;;;;;;;;;5074971;28;19931;-76
2023/11/19 11:46:21;;;;;;;;;;;;;;;;;;5072639;28;19960;-75
2023/11/19 11:48:48;;;;;;;;;;;;;;;;;;5077017;28;19936;-76
2023/11/19 11:51:14;;;;;;;;;;;;;;;;;;5079582;28;20013;-74
2023/11/19 11:53:40;;;;;;;;;;;;;;;;;;5084320;28;19932;-76
2023/11/19 11:56:08;;;;;;;;;;;;;;;;;;5079132;28;20019;-78
2023/11/19 11:58:34;;;;;;;;;;;;;;;;;;5072942;28;19924;-77
2023/11/19 12:01:00;;;;;;;;;;;;;;;;;;5076712;28;19978;-76
2023/11/19 12:03:27;;;;;;;;;;;;;;;;;;5080376;28;19932;-77
2023/11/19 12:05:53;;;;;;;;;;;;;;;;;;5078303;28;19931;-76
2023/11/19 12:08:23;;;;;;;;;;;;;;;;;;5075247;28;19975;-76
2023/11/19 12:10:51;;;;;;;;;;;;;;;;;;5073355;28;19924;-77
2023/11/19 12:13:18;;;;;;;;;;;;;;;;;;5067137;28;19931;-75
2023/11/19 12:15:45;;;;;;;;;;;;;;;;;;5078358;28;20380;-77
2023/11/19 12:18:11;;;;;;;;;;;;;;;;;;5072639;28;19924;-78
2023/11/19 12:20:39;;;;;;;;;;;;;;;;;;5059651;28;19932;-77
2023/11/19 12:23:07;;;;;;;;;;;;;;;;;;5063430;28;20540;-77
2023/11/19 12:25:34;;;;;;;;;;;;;;;;;;5076121;28;19924;-76
2023/11/19 12:28:04;;;;;;;;;;;;;;;;;;5061707;28;19947;-76
2023/11/19 12:30:30;;;;;;;;;;;;;;;;;;5083634;28;19947;-75
2023/11/19 12:32:57;;;;;;;;;;;;;;;;;;5078334;28;19939;-76
2023/11/19 12:35:23;;;;;;;;;;;;;;;;;;5075364;28;19925;-76
2023/11/19 12:37:50;;;;;;;;;;;;;;;;;;5059815;28;20404;-76
2023/11/19 12:40:17;;;;;;;;;;;;;;;;;;5072185;28;19991;-76
2023/11/19 12:42:43;;;;;;;;;;;;;;;;;;5076161;28;19977;-77
2023/11/19 12:45:10;;;;;;;;;;;;;;;;;;5071557;28;19929;-77
2023/11/19 12:47:37;;;;;;;;;;;;;;;;;;5076172;28;20327;-79
2023/11/19 12:50:04;;;;;;;;;;;;;;;;;;5057066;28;19928;-77
2023/11/19 12:52:30;;;;;;;;;;;;;;;;;;5076849;28;19972;-77
2023/11/19 12:54:58;;;;;;;;;;;;;;;;;;5073442;28;20372;-76
2023/11/19 12:57:24;;;;;;;;;;;;;;;;;;5075558;28;19931;-76
2023/11/19 12:59:50;;;;;;;;;;;;;;;;;;5055423;28;19954;-76
2023/11/19 13:02:17;;;;;;;;;;;;;;;;;;5074818;28;19959;-76
2023/11/19 13:04:43;;;;;;;;;;;;;;;;;;5093214;28;20400;-76
2023/11/19 13:07:10;;;;;;;;;;;;;;;;;;5075412;28;19924;-75
2023/11/19 13:09:36;;;;;;;;;;;;;;;;;;5057635;28;20023;-78
2023/11/19 13:12:03;;;;;;;;;;;;;;;;;;5071879;28;20005;-76
2023/11/19 13:14:29;;;;;;;;;;;;;;;;;;5058663;28;20300;-77
2023/11/19 13:16:56;;;;;;;;;;;;;;;;;;5081701;28;19934;-76
2023/11/19 13:19:24;;;;;;;;;;;;;;;;;;5072289;28;19930;-75
2023/11/19 13:21:50;;;;;;;;;;;;;;;;;;5073785;28;19924;-75
2023/11/19 13:24:17;;;;;;;;;;;;;;;;;;5020276;28;19929;-78
2023/11/19 13:26:43;;;;;;;;;;;;;;;;;;5021375;28;19932;-74
2023/11/19 13:29:10;;;;;;;;;;;;;;;;;;5011462;28;20024;-76
2023/11/19 13:31:37;;;;;;;;;;;;;;;;;;5020506;28;19929;-74
2023/11/19 13:34:03;;;;;;;;;;;;;;;;;;5019044;28;19925;-74
2023/11/19 13:36:30;;;;;;;;;;;;;;;;;;5020641;28;19935;-75
2023/11/19 13:38:58;;;;;;;;;;;;;;;;;;5021886;28;19984;-76
2023/11/19 13:41:26;;;;;;;;;;;;;;;;;;5019335;28;19940;-76
2023/11/19 13:43:52;;;;;;;;;;;;;;;;;;5029561;28;19960;-74
2023/11/19 13:46:20;;;;;;;;;;;;;;;;;;5035047;28;20298;-76
2023/11/19 13:48:46;;;;;;;;;;;;;;;;;;5049104;28;19957;-74
2023/11/19 13:51:12;;;;;;;;;;;;;;;;;;5035575;28;20013;-76
2023/11/19 13:53:39;;;;;;;;;;;;;;;;;;5054656;28;19932;-77
2023/11/19 13:56:10;;;;;;;;;;;;;;;;;;5052213;28;20215;-76
2023/11/19 13:58:37;;;;;;;;;;;;;;;;;;5043156;28;20019;-75
2023/11/19 14:01:03;;;;;;;;;;;;;;;;;;5032704;28;19929;-78
2023/11/19 14:03:29;;;;;;;;;;;;;;;;;;5051174;28;20091;-77
2023/11/19 14:05:58;;;;;;;;;;;;;;;;;;5043131;28;19934;-76
2023/11/19 14:08:24;;;;;;;;;;;;;;;;;;5035086;28;19937;-77
2023/11/19 14:10:51;;;;;;;;;;;;;;;;;;5051259;28;19925;-76
2023/11/19 14:13:18;;;;;;;;;;;;;;;;;;5049242;28;19932;-76
2023/11/19 14:15:44;;;;;;;;;;;;;;;;;;5025936;28;19957;-76
2023/11/19 14:18:13;;;;;;;;;;;;;;;;;;5039679;28;19929;-76
2023/11/19 14:20:40;;;;;;;;;;;;;;;;;;5021251;28;19972;-76
2023/11/19 14:23:06;;;;;;;;;;;;;;;;;;5016233;28;20027;-76
2023/11/19 14:25:33;;;;;;;;;;;;;;;;;;5050922;28;19925;-77
2023/11/19 14:28:00;;;;;;;;;;;;;;;;;;5044677;28;19979;-76
2023/11/19 14:30:28;;;;;;;;;;;;;;;;;;5039501;28;19932;-76
2023/11/19 14:32:54;;;;;;;;;;;;;;;;;;5020088;28;19995;-77
2023/11/19 14:35:21;;;;;;;;;;;;;;;;;;5050846;28;20354;-76
2023/11/19 14:37:47;;;;;;;;;;;;;;;;;;5025334;28;20293;-76
2023/11/19 14:40:14;;;;;;;;;;;;;;;;;;5051809;28;19932;-76
2023/11/19 14:42:40;;;;;;;;;;;;;;;;;;5045748;28;19929;-76
2023/11/19 14:45:07;;;;;;;;;;;;;;;;;;5018738;28;19930;-77
2023/11/19 14:47:33;;;;;;;;;;;;;;;;;;5049947;28;19960;-76
2023/11/19 14:50:00;;;;;;;;;;;;;;;;;;5050928;28;19925;-76
2023/11/19 14:52:26;;;;;;;;;;;;;;;;;;5051082;28;19952;-77
2023/11/19 14:54:54;;;;;;;;;;;;;;;;;;5021622;28;19956;-76
2023/11/19 14:57:20;;;;;;;;;;;;;;;;;;5032171;28;20095;-77
2023/11/19 14:59:47;;;;;;;;;;;;;;;;;;5041269;28;20574;-77
2023/11/19 15:02:13;;;;;;;;;;;;;;;;;;5028180;28;19931;-77
2023/11/19 15:04:41;;;;;;;;;;;;;;;;;;5031928;28;20025;-76
2023/11/19 15:07:08;;;;;;;;;;;;;;;;;;5027536;28;20012;-77
2023/11/19 15:09:36;;;;;;;;;;;;;;;;;;5025995;28;19964;-76
2023/11/19 15:12:02;;;;;;;;;;;;;;;;;;5025422;28;19929;-75
2023/11/19 15:14:30;;;;;;;;;;;;;;;;;;5030394;28;19925;-77
2023/11/19 15:16:58;;;;;;;;;;;;;;;;;;5055669;28;19948;-76
2023/11/19 15:19:24;;;;;;;;;;;;;;;;;;5056706;28;19925;-76
2023/11/19 15:21:51;;;;;;;;;;;;;;;;;;5049598;28;19929;-76
2023/11/19 15:24:17;;;;;;;;;;;;;;;;;;5045361;28;19925;-75
2023/11/19 15:26:43;;;;;;;;;;;;;;;;;;5024706;28;19926;-76
2023/11/19 15:29:10;;;;;;;;;;;;;;;;;;5026103;28;19925;-76
2023/11/19 15:31:37;;;;;;;;;;;;;;;;;;5018987;28;19968;-76
2023/11/19 15:34:03;;;;;;;;;;;;;;;;;;5053247;28;20020;-76
2023/11/19 15:36:31;;;;;;;;;;;;;;;;;;5041944;28;19995;-76
2023/11/19 15:38:58;;;;;;;;;;;;;;;;;;5043634;28;19925;-77
2023/11/19 15:41:24;;;;;;;;;;;;;;;;;;5053500;28;19937;-76
2023/11/19 15:43:51;;;;;;;;;;;;;;;;;;5045909;28;19956;-76
2023/11/19 15:46:18;;;;;;;;;;;;;;;;;;5028014;28;19952;-76
2023/11/19 15:48:44;;;;;;;;;;;;;;;;;;5051153;28;19948;-76
2023/11/19 15:51:11;;;;;;;;;;;;;;;;;;5021790;28;19925;-76
2023/11/19 15:53:39;;;;;;;;;;;;;;;;;;5032304;28;19932;-76
2023/11/19 15:56:05;;;;;;;;;;;;;;;;;;5024249;28;19934;-77
2023/11/19 15:58:32;;;;;;;;;;;;;;;;;;5045386;28;20382;-76
2023/11/19 16:01:00;;;;;;;;;;;;;;;;;;5046825;28;19933;-77
2023/11/19 16:03:28;;;;;;;;;;;;;;;;;;5042273;28;19936;-77
2023/11/19 16:05:54;;;;;;;;;;;;;;;;;;5029715;28;19926;-78
2023/11/19 16:08:29;;;;;;;;;;;;;;;;;;5052333;28;19932;-77
2023/11/19 16:10:56;;;;;;;;;;;;;;;;;;5019990;28;19940;-76
2023/11/19 16:13:22;;;;;;;;;;;;;;;;;;5027493;28;19925;-77
2023/11/19 16:15:49;;;;;;;;;;;;;;;;;;5025335;28;20373;-76
2023/11/19 16:18:17;;;;;;;;;;;;;;;;;;5023404;28;19929;-78
2023/11/19 16:20:44;;;;;;;;;;;;;;;;;;5031970;28;19925;-76
2023/11/19 16:23:12;;;;;;;;;;;;;;;;;;5021788;28;20625;-78
2023/11/19 16:25:39;;;;;;;;;;;;;;;;;;5029622;28;19932;-76
2023/11/19 16:28:07;;;;;;;;;;;;;;;;;;5027620;28;19948;-77
2023/11/19 16:30:33;;;;;;;;;;;;;;;;;;5024490;28;20012;-77
2023/11/19 16:33:00;;;;;;;;;;;;;;;;;;5034858;28;19932;-80
2023/11/19 16:35:26;;;;;;;;;;;;;;;;;;5038533;28;20314;-76
2023/11/19 16:37:53;;;;;;;;;;;;;;;;;;5019509;28;20027;-77
2023/11/19 16:40:19;;;;;;;;;;;;;;;;;;5023543;28;19926;-77
2023/11/19 16:42:48;;;;;;;;;;;;;;;;;;5036617;28;20016;-77